createdAt,value
2022-07-28T00:00:16.332Z,0.88
2022-07-28T00:02:43.999Z,0.90
2022-07-28T00:05:11.703Z,0.80
2022-07-28T00:07:40.750Z,0.88
2022-07-28T00:10:09.255Z,0.88
2022-07-28T00:12:37.126Z,1.10
2022-07-28T00:15:05.147Z,1.00
2022-07-28T00:17:32.828Z,1.00
2022-07-28T00:20:00.445Z,0.70
2022-07-28T00:22:28.004Z,0.98
2022-07-28T00:24:57.078Z,0.60
2022-07-28T00:27:24.586Z,0.70
2022-07-28T00:29:52.167Z,1.20
2022-07-28T00:32:19.833Z,0.95
2022-07-28T00:34:47.591Z,1.20
2022-07-28T00:37:15.278Z,0.90
2022-07-28T00:39:42.965Z,1.10
2022-07-28T00:42:12.062Z,0.80
2022-07-28T00:44:39.641Z,1.02
2022-07-28T00:47:07.259Z,0.70
2022-07-28T00:49:34.874Z,0.70
2022-07-28T00:52:02.488Z,0.77
2022-07-28T00:54:30.213Z,1.05
2022-07-28T00:56:57.864Z,0.70
2022-07-28T00:59:27.359Z,0.93
2022-07-28T01:01:55.056Z,1.08
2022-07-28T01:04:22.855Z,0.82
2022-07-28T01:06:57.253Z,0.82
2022-07-28T01:09:37.979Z,0.80
2022-07-28T01:12:11.848Z,0.75
2022-07-28T01:17:12.438Z,0.82
2022-07-28T01:19:42.694Z,0.68
2022-07-28T01:22:10.937Z,0.85
2022-07-28T01:24:48.969Z,1.10
2022-07-28T01:27:27.321Z,0.68
2022-07-28T01:30:08.057Z,0.80
2022-07-28T01:32:43.499Z,0.70
2022-07-28T01:35:14.684Z,0.70
2022-07-28T01:37:45.513Z,0.63
2022-07-28T01:40:15.835Z,0.90
2022-07-28T01:42:47.242Z,0.88
2022-07-28T01:45:14.872Z,0.70
2022-07-28T01:47:44.416Z,0.55
2022-07-28T01:50:12.524Z,0.60
2022-07-28T01:52:41.578Z,0.70
2022-07-28T01:55:10.163Z,0.68
2022-07-28T01:57:37.678Z,0.70
2022-07-28T02:00:06.993Z,0.80
2022-07-28T02:02:34.638Z,0.80
2022-07-28T02:05:03.931Z,0.80
2022-07-28T02:07:31.630Z,0.70
2022-07-28T02:09:59.263Z,0.60
2022-07-28T02:12:26.950Z,0.70
2022-07-28T02:14:54.502Z,0.90
2022-07-28T02:17:28.330Z,0.63
2022-07-28T02:22:24.811Z,0.75
2022-07-28T02:24:53.429Z,0.88
2022-07-28T02:27:23.892Z,0.80
2022-07-28T02:29:55.183Z,0.68
2022-07-28T02:32:27.742Z,0.77
2022-07-28T02:34:59.320Z,0.68
2022-07-28T02:37:28.326Z,0.80
2022-07-28T02:40:00.279Z,0.80
2022-07-28T02:42:30.749Z,1.10
2022-07-28T02:44:59.692Z,0.70
2022-07-28T02:47:29.513Z,0.82
2022-07-28T02:49:57.806Z,0.80
2022-07-28T02:52:25.893Z,0.80
2022-07-28T02:54:54.974Z,0.70
2022-07-28T02:57:22.709Z,1.02
2022-07-28T02:59:50.516Z,0.98
2022-07-28T03:02:19.870Z,1.00
2022-07-28T03:04:47.566Z,0.82
2022-07-28T03:07:15.167Z,0.80
2022-07-28T03:09:43.715Z,0.98
2022-07-28T03:12:12.800Z,1.35
2022-07-28T03:14:40.463Z,1.20
2022-07-28T03:17:08.022Z,1.00
2022-07-28T03:19:35.783Z,0.80
2022-07-28T03:22:03.265Z,0.80
2022-07-28T03:24:32.819Z,0.98
2022-07-28T03:27:03.267Z,0.80
2022-07-28T03:29:32.988Z,0.65
2022-07-28T03:32:00.502Z,0.75
2022-07-28T03:34:28.215Z,0.70
2022-07-28T03:37:00.431Z,0.73
2022-07-28T03:39:28.128Z,1.08
2022-07-28T03:42:00.478Z,0.63
2022-07-28T03:44:29.007Z,0.65
2022-07-28T03:46:58.320Z,0.80
2022-07-28T03:49:25.866Z,0.73
2022-07-28T03:51:53.449Z,0.70
2022-07-28T03:54:20.965Z,0.93
2022-07-28T03:56:48.450Z,0.60
2022-07-28T03:59:15.962Z,0.75
2022-07-28T04:01:43.974Z,0.82
2022-07-28T04:04:13.483Z,0.73
2022-07-28T04:06:41.409Z,0.70
2022-07-28T04:09:08.996Z,0.60
2022-07-28T04:11:36.501Z,0.80
2022-07-28T04:14:04.199Z,0.90
2022-07-28T04:16:31.734Z,0.80
2022-07-28T04:18:59.362Z,0.70
2022-07-28T04:21:28.327Z,0.93
2022-07-28T04:24:01.410Z,0.70
2022-07-28T04:26:29.520Z,0.85
2022-07-28T04:28:57.075Z,0.60
2022-07-28T04:31:24.639Z,0.60
2022-07-28T04:33:52.216Z,0.70
2022-07-28T04:36:19.836Z,0.88
2022-07-28T04:38:49.011Z,0.70
2022-07-28T04:41:16.562Z,0.70
2022-07-28T04:43:44.133Z,0.70
2022-07-28T04:46:14.986Z,0.80
2022-07-28T04:48:42.940Z,0.70
2022-07-28T04:51:10.758Z,0.60
2022-07-28T04:53:38.379Z,0.80
2022-07-28T04:56:07.553Z,0.80
2022-07-28T04:58:35.124Z,0.98
2022-07-28T05:01:02.851Z,0.60
2022-07-28T05:03:36.017Z,0.85
2022-07-28T05:06:04.251Z,0.70
2022-07-28T05:08:31.809Z,0.60
2022-07-28T05:10:59.363Z,0.90
2022-07-28T05:13:33.769Z,0.52
2022-07-28T05:16:02.276Z,0.70
2022-07-28T05:18:29.851Z,0.50
2022-07-28T05:20:57.551Z,0.70
2022-07-28T05:23:25.725Z,0.50
2022-07-28T05:25:53.273Z,0.70
2022-07-28T05:28:20.872Z,0.80
2022-07-28T05:30:49.928Z,0.60
2022-07-28T05:33:17.545Z,0.60
2022-07-28T05:35:45.944Z,0.80
2022-07-28T05:38:13.752Z,0.50
2022-07-28T05:40:41.264Z,0.55
2022-07-28T05:43:08.686Z,0.88
2022-07-28T05:45:36.399Z,0.88
2022-07-28T05:48:05.633Z,0.60
2022-07-28T05:50:33.225Z,0.90
2022-07-28T05:53:01.131Z,0.60
2022-07-28T05:55:28.831Z,0.55
2022-07-28T05:57:56.250Z,0.50
2022-07-28T06:00:23.990Z,0.80
2022-07-28T06:02:51.535Z,0.70
2022-07-28T06:05:21.853Z,0.70
2022-07-28T06:07:51.425Z,0.82
2022-07-28T06:10:21.007Z,0.65
2022-07-28T06:12:49.712Z,0.88
2022-07-28T06:15:18.676Z,0.80
2022-07-28T06:17:46.329Z,0.60
2022-07-28T06:20:13.936Z,0.90
2022-07-28T06:22:43.611Z,0.90
2022-07-28T06:25:15.036Z,0.90
2022-07-28T06:27:42.694Z,0.80
2022-07-28T06:30:10.953Z,0.90
2022-07-28T06:32:38.578Z,0.60
2022-07-28T06:35:07.499Z,0.70
2022-07-28T06:37:35.050Z,0.70
2022-07-28T06:40:05.302Z,0.73
2022-07-28T06:42:32.942Z,0.70
2022-07-28T06:45:00.634Z,0.98
2022-07-28T06:47:28.263Z,0.70
2022-07-28T06:49:55.905Z,0.80
2022-07-28T06:52:23.538Z,0.70
2022-07-28T06:54:51.070Z,0.75
2022-07-28T06:57:21.896Z,1.00
2022-07-28T06:59:49.558Z,0.82
2022-07-28T07:02:17.260Z,1.00
2022-07-28T07:04:45.266Z,0.80
2022-07-28T07:07:15.355Z,0.80
2022-07-28T07:09:44.975Z,0.70
2022-07-28T07:12:12.522Z,0.60
2022-07-28T07:14:41.680Z,0.75
2022-07-28T07:17:09.286Z,0.50
2022-07-28T07:19:36.864Z,0.75
2022-07-28T07:22:04.480Z,0.70
2022-07-28T07:24:32.112Z,0.68
2022-07-28T07:26:59.710Z,0.50
2022-07-28T07:29:30.313Z,0.90
2022-07-28T07:31:59.879Z,0.63
2022-07-28T07:34:27.614Z,0.68
2022-07-28T07:36:55.146Z,0.60
2022-07-28T07:39:22.773Z,0.55
2022-07-28T07:41:50.516Z,0.63
2022-07-28T07:44:18.340Z,0.60
2022-07-28T07:46:46.279Z,0.73
2022-07-28T07:49:15.468Z,0.82
2022-07-28T07:51:44.448Z,0.80
2022-07-28T07:54:12.389Z,0.60
2022-07-28T07:56:40.452Z,0.47
2022-07-28T07:59:08.080Z,0.60
2022-07-28T08:01:35.696Z,0.70
2022-07-28T08:04:08.451Z,0.70
2022-07-28T08:06:37.579Z,0.60
2022-07-28T08:09:07.617Z,0.70
2022-07-28T08:11:35.096Z,0.70
2022-07-28T08:14:02.683Z,0.60
2022-07-28T08:16:30.477Z,0.70
2022-07-28T08:18:58.311Z,0.47
2022-07-28T08:21:25.915Z,0.93
2022-07-28T08:23:55.052Z,0.80
2022-07-28T08:26:22.892Z,0.60
2022-07-28T08:28:50.406Z,0.60
2022-07-28T08:31:18.573Z,0.60
2022-07-28T08:33:53.774Z,0.60
2022-07-28T08:36:22.290Z,0.65
2022-07-28T08:38:49.945Z,0.70
2022-07-28T08:41:21.023Z,0.50
2022-07-28T08:43:48.622Z,0.60
2022-07-28T08:46:16.339Z,0.60
2022-07-28T08:48:44.140Z,0.68
2022-07-28T08:51:12.022Z,0.65
2022-07-28T08:53:40.684Z,0.60
2022-07-28T08:56:09.083Z,0.60
2022-07-28T08:58:38.190Z,0.80
2022-07-28T09:01:06.856Z,0.70
2022-07-28T09:03:34.798Z,0.50
2022-07-28T09:06:02.602Z,0.70
2022-07-28T09:08:30.302Z,0.85
2022-07-28T09:10:58.038Z,0.73
2022-07-28T09:13:25.617Z,0.80
2022-07-28T09:15:54.817Z,0.60
2022-07-28T09:18:22.526Z,0.98
2022-07-28T09:20:50.148Z,0.80
2022-07-28T09:23:42.678Z,0.80
2022-07-28T09:26:11.298Z,0.70
2022-07-28T09:28:53.556Z,0.70
2022-07-28T09:31:23.544Z,0.93
2022-07-28T09:33:58.481Z,0.90
2022-07-28T09:36:26.062Z,0.50
2022-07-28T09:38:53.723Z,0.52
2022-07-28T09:41:21.361Z,0.73
2022-07-28T09:43:54.492Z,0.98
2022-07-28T09:46:26.136Z,0.80
2022-07-28T09:48:57.272Z,0.95
2022-07-28T09:51:26.863Z,0.80
2022-07-28T09:53:55.039Z,0.60
2022-07-28T09:56:22.672Z,1.02
2022-07-28T09:58:57.469Z,0.70
2022-07-28T10:01:29.914Z,0.82
2022-07-28T10:04:04.680Z,0.90
2022-07-28T10:06:32.988Z,0.85
2022-07-28T10:09:01.399Z,0.60
2022-07-28T10:11:29.789Z,0.73
2022-07-28T10:13:59.298Z,0.90
2022-07-28T10:16:29.678Z,0.75
2022-07-28T10:18:57.734Z,0.60
2022-07-28T10:21:25.345Z,0.70
2022-07-28T10:23:53.912Z,0.80
2022-07-28T10:26:23.567Z,0.75
2022-07-28T10:28:52.107Z,0.60
2022-07-28T10:31:41.427Z,0.90
2022-07-28T10:34:16.062Z,0.70
2022-07-28T10:36:44.007Z,0.70
2022-07-28T10:39:14.548Z,0.45
2022-07-28T10:41:42.973Z,0.80
2022-07-28T10:44:11.840Z,0.98
2022-07-28T10:46:42.097Z,0.68
2022-07-28T10:49:09.977Z,0.60
2022-07-28T10:51:48.833Z,0.55
2022-07-28T10:54:28.176Z,0.80
2022-07-28T10:56:57.193Z,0.70
2022-07-28T10:59:53.189Z,0.60
2022-07-28T11:02:46.572Z,0.70
2022-07-28T11:05:33.544Z,0.68
2022-07-28T11:08:02.422Z,0.68
2022-07-28T11:10:30.280Z,0.77
2022-07-28T11:12:58.398Z,0.90
2022-07-28T11:15:27.655Z,0.70
2022-07-28T11:18:06.727Z,0.85
2022-07-28T11:21:10.050Z,0.70
2022-07-28T11:23:54.084Z,0.60
2022-07-28T11:26:28.722Z,0.60
2022-07-28T11:29:15.182Z,0.70
2022-07-28T11:32:02.013Z,0.77
2022-07-28T11:35:08.815Z,0.77
2022-07-28T11:38:07.293Z,1.00
2022-07-28T11:40:35.735Z,0.82
2022-07-28T11:43:36.456Z,0.75
2022-07-28T11:46:34.925Z,0.70
2022-07-28T11:49:17.574Z,0.65
2022-07-28T11:52:11.074Z,0.70
2022-07-28T11:54:39.478Z,0.80
2022-07-28T11:57:07.206Z,0.73
2022-07-28T11:59:47.270Z,0.70
2022-07-28T12:02:18.961Z,0.80
2022-07-28T12:04:51.042Z,0.60
2022-07-28T12:07:20.178Z,0.80
2022-07-28T12:09:49.016Z,0.70
2022-07-28T12:12:16.616Z,0.60
2022-07-28T12:14:44.140Z,0.68
2022-07-28T12:17:12.374Z,0.70
2022-07-28T12:19:40.547Z,0.60
2022-07-28T12:22:13.444Z,0.85
2022-07-28T12:24:45.727Z,0.70
2022-07-28T12:27:15.234Z,0.55
2022-07-28T12:29:47.886Z,0.65
2022-07-28T12:32:17.144Z,0.77
2022-07-28T12:34:45.345Z,0.73
2022-07-28T12:37:12.877Z,0.70
2022-07-28T12:39:40.516Z,0.60
2022-07-28T12:42:10.120Z,0.70
2022-07-28T12:44:38.847Z,0.68
2022-07-28T12:47:07.741Z,0.80
2022-07-28T12:49:35.261Z,0.60
2022-07-28T12:52:16.010Z,0.80
2022-07-28T12:54:43.578Z,0.75
2022-07-28T12:57:48.665Z,0.68
2022-07-28T13:00:19.669Z,0.70
2022-07-28T13:02:48.189Z,0.65
2022-07-28T13:05:29.509Z,0.90
2022-07-28T13:08:03.066Z,0.60
2022-07-28T13:10:32.604Z,0.80
2022-07-28T13:13:03.798Z,0.75
2022-07-28T13:15:31.451Z,0.60
2022-07-28T13:17:59.325Z,0.70
2022-07-28T13:20:26.976Z,0.70
2022-07-28T13:22:54.542Z,0.88
2022-07-28T13:25:22.304Z,0.77
2022-07-28T13:27:55.057Z,0.57
2022-07-28T13:30:25.024Z,0.75
2022-07-28T13:32:52.667Z,0.70
2022-07-28T13:35:20.894Z,0.70
2022-07-28T13:37:49.046Z,1.00
2022-07-28T13:40:16.718Z,0.70
2022-07-28T13:42:53.115Z,0.80
2022-07-28T13:45:30.268Z,0.80
2022-07-28T13:47:58.116Z,1.00
2022-07-28T13:50:25.804Z,0.85
2022-07-28T13:52:53.547Z,0.93
2022-07-28T13:55:22.755Z,0.70
2022-07-28T13:57:51.544Z,0.70
2022-07-28T14:00:22.835Z,0.80
2022-07-28T14:02:52.267Z,0.70
2022-07-28T14:05:20.039Z,0.90
2022-07-28T14:07:48.311Z,0.88
2022-07-28T14:10:16.662Z,0.70
2022-07-28T14:12:44.906Z,0.80
2022-07-28T14:15:14.137Z,0.70
2022-07-28T14:17:44.374Z,0.82
2022-07-28T14:20:14.849Z,0.60
2022-07-28T14:22:42.485Z,0.82
2022-07-28T14:25:10.776Z,0.90
2022-07-28T14:27:38.475Z,0.47
2022-07-28T14:30:07.690Z,0.70
2022-07-28T14:32:35.261Z,0.60
2022-07-28T14:35:02.865Z,0.80
2022-07-28T14:37:55.136Z,0.60
2022-07-28T14:40:19.734Z,0.80
2022-07-28T14:42:47.251Z,0.90
2022-07-28T14:45:14.876Z,0.60
2022-07-28T14:47:45.143Z,0.90
2022-07-28T14:50:13.421Z,0.90
2022-07-28T14:52:44.782Z,0.88
2022-07-28T14:55:13.286Z,0.70
2022-07-28T14:57:51.881Z,0.70
2022-07-28T15:00:22.870Z,0.93
2022-07-28T15:02:50.564Z,0.90
2022-07-28T15:05:18.490Z,0.93
2022-07-28T15:07:47.641Z,0.80
2022-07-28T15:10:15.384Z,0.57
2022-07-28T15:12:42.936Z,0.68
2022-07-28T15:15:11.719Z,0.70
2022-07-28T15:17:39.326Z,0.60
2022-07-28T15:20:08.639Z,0.68
2022-07-28T15:22:36.338Z,0.70
2022-07-28T15:25:06.347Z,0.90
2022-07-28T15:27:34.155Z,0.70
2022-07-28T15:30:02.936Z,0.98
2022-07-28T15:32:31.131Z,0.88
2022-07-28T15:34:59.580Z,0.90
2022-07-28T15:37:27.277Z,0.93
2022-07-28T15:39:54.871Z,0.75
2022-07-28T15:42:23.938Z,0.70
2022-07-28T15:44:52.567Z,0.70
2022-07-28T15:47:20.149Z,0.50
2022-07-28T15:49:47.856Z,0.90
2022-07-28T15:52:15.504Z,1.05
2022-07-28T15:54:43.088Z,0.82
2022-07-28T15:57:10.611Z,1.27
2022-07-28T15:59:49.670Z,1.02
2022-07-28T16:02:18.822Z,1.10
2022-07-28T16:04:53.391Z,0.93
2022-07-28T16:07:22.437Z,0.88
2022-07-28T16:09:50.853Z,1.00
2022-07-28T16:12:18.413Z,0.80
2022-07-28T16:14:47.498Z,0.88
2022-07-28T16:17:15.268Z,0.77
2022-07-28T16:19:50.710Z,0.93
2022-07-28T16:22:18.726Z,1.00
2022-07-28T16:24:46.302Z,1.23
2022-07-28T16:27:13.902Z,0.73
2022-07-28T16:29:41.486Z,0.80
2022-07-28T16:32:10.521Z,0.88
2022-07-28T16:34:38.195Z,1.00
2022-07-28T16:37:06.178Z,0.95
2022-07-28T16:39:34.231Z,0.82
2022-07-28T16:42:01.902Z,1.00
2022-07-28T16:44:29.519Z,0.60
2022-07-28T16:46:57.380Z,0.80
2022-07-28T16:49:26.513Z,1.00
2022-07-28T16:51:54.176Z,0.80
2022-07-28T16:54:21.808Z,0.80
2022-07-28T16:56:49.420Z,1.00
2022-07-28T16:59:17.137Z,0.90
2022-07-28T17:01:46.564Z,0.80
2022-07-28T17:04:15.312Z,0.90
2022-07-28T17:06:45.102Z,0.77
2022-07-28T17:09:12.712Z,1.05
2022-07-28T17:11:40.160Z,0.73
2022-07-28T17:14:07.776Z,0.80
2022-07-28T17:16:35.434Z,0.70
2022-07-28T17:19:03.031Z,0.80
2022-07-28T17:21:30.607Z,0.70
2022-07-28T17:23:59.854Z,0.80
2022-07-28T17:27:32.516Z,0.80
2022-07-28T17:29:15.080Z,1.25
2022-07-28T17:31:42.686Z,0.70
2022-07-28T17:34:10.360Z,0.70
2022-07-28T17:36:37.939Z,1.10
2022-07-28T17:39:10.491Z,0.85
2022-07-28T17:41:38.038Z,0.95
2022-07-28T17:44:05.816Z,1.10
2022-07-28T17:46:33.512Z,0.77
2022-07-28T17:49:02.261Z,1.02
2022-07-28T17:51:29.998Z,0.80
2022-07-28T17:53:57.601Z,1.05
2022-07-28T17:56:27.348Z,1.05
2022-07-28T17:58:56.567Z,0.77
2022-07-28T18:01:24.195Z,0.90
2022-07-28T18:03:59.522Z,0.70
2022-07-28T18:06:29.877Z,0.93
2022-07-28T18:08:57.491Z,1.08
2022-07-28T18:11:31.333Z,0.85
2022-07-28T18:14:15.710Z,1.13
2022-07-28T18:16:45.752Z,0.90
2022-07-28T18:19:13.357Z,0.90
2022-07-28T18:21:43.239Z,0.70
2022-07-28T18:24:11.305Z,0.93
2022-07-28T18:26:40.370Z,1.00
2022-07-28T18:29:08.019Z,1.00
2022-07-28T18:31:35.699Z,0.73
2022-07-28T18:34:03.353Z,0.98
2022-07-28T18:36:30.934Z,1.00
2022-07-28T18:38:58.529Z,0.90
2022-07-28T18:41:26.160Z,0.70
2022-07-28T18:43:55.173Z,0.90
2022-07-28T18:46:22.894Z,1.00
2022-07-28T18:48:57.074Z,1.00
2022-07-28T18:51:25.684Z,0.82
2022-07-28T18:53:53.404Z,1.10
2022-07-28T18:56:20.929Z,1.10
2022-07-28T18:58:48.541Z,0.90
2022-07-28T19:01:17.648Z,1.13
2022-07-28T19:03:45.235Z,1.00
2022-07-28T19:06:12.920Z,1.15
2022-07-28T19:08:40.482Z,0.80
2022-07-28T19:11:08.119Z,0.93
2022-07-28T19:13:35.754Z,0.98
2022-07-28T19:16:03.613Z,1.30
2022-07-28T19:18:32.691Z,0.90
2022-07-28T19:21:00.318Z,1.27
2022-07-28T19:23:27.974Z,1.20
2022-07-28T19:25:55.632Z,0.95
2022-07-28T19:28:23.327Z,1.20
2022-07-28T19:30:51.065Z,1.17
2022-07-28T19:33:19.407Z,1.35
2022-07-28T19:35:48.708Z,1.20
2022-07-28T19:38:17.049Z,1.50
2022-07-28T19:40:44.594Z,0.98
2022-07-28T19:43:12.151Z,1.20
2022-07-28T19:45:39.716Z,1.58
2022-07-28T19:48:07.501Z,1.52
2022-07-28T19:50:35.248Z,1.17
2022-07-28T19:53:05.204Z,1.50
2022-07-28T19:55:32.967Z,1.40
2022-07-28T19:58:00.566Z,1.67
2022-07-28T20:00:28.177Z,1.45
2022-07-28T20:02:56.725Z,1.60
2022-07-28T20:05:24.462Z,1.45
2022-07-28T20:07:52.020Z,1.25
2022-07-28T20:10:21.097Z,1.35
2022-07-28T20:12:48.719Z,1.38
2022-07-28T20:15:16.348Z,1.48
2022-07-28T20:17:43.865Z,1.38
2022-07-28T20:20:12.723Z,1.50
2022-07-28T20:22:40.299Z,1.50
2022-07-28T20:25:09.362Z,1.40
2022-07-28T20:27:40.471Z,1.67
2022-07-28T20:30:09.361Z,1.40
2022-07-28T20:32:37.030Z,1.60
2022-07-28T20:35:05.027Z,1.60
2022-07-28T20:37:37.241Z,1.90
2022-07-28T20:40:07.089Z,1.70
2022-07-28T20:42:34.760Z,1.40
2022-07-28T20:45:04.201Z,1.63
2022-07-28T20:47:32.428Z,1.50
2022-07-28T20:50:00.143Z,1.40
2022-07-28T20:52:27.720Z,1.48
2022-07-28T20:54:55.358Z,1.33
2022-07-28T20:57:23.062Z,1.40
2022-07-28T20:59:50.698Z,1.60
2022-07-28T21:02:19.899Z,1.27
2022-07-28T21:04:50.247Z,1.70
2022-07-28T21:08:00.418Z,1.30
2022-07-28T21:10:06.950Z,2.15
2022-07-28T21:12:34.598Z,1.50
2022-07-28T21:15:02.318Z,1.58
2022-07-28T21:17:31.502Z,1.35
2022-07-28T21:19:59.182Z,1.30
2022-07-28T21:22:26.791Z,1.48
2022-07-28T21:24:55.695Z,1.63
2022-07-28T21:27:23.841Z,1.45
2022-07-28T21:32:18.029Z,1.42
2022-07-28T21:34:47.092Z,1.33
2022-07-28T21:37:14.650Z,1.77
2022-07-28T21:39:42.241Z,1.58
2022-07-28T21:42:09.876Z,1.75
2022-07-28T21:44:37.602Z,1.60
2022-07-28T21:47:05.616Z,1.52
2022-07-28T21:49:33.221Z,1.58
2022-07-28T21:52:02.312Z,2.05
2022-07-28T21:54:29.849Z,1.95
2022-07-28T21:56:59.064Z,1.83
2022-07-28T21:59:26.680Z,1.40
2022-07-28T22:01:54.412Z,1.77
2022-07-28T22:04:22.239Z,2.22
2022-07-28T22:06:50.531Z,1.55
2022-07-28T22:09:19.663Z,1.73
2022-07-28T22:11:47.313Z,2.20
2022-07-28T22:14:15.117Z,2.03
2022-07-28T22:16:43.102Z,2.10
2022-07-28T22:19:10.769Z,1.90
2022-07-28T22:21:38.414Z,1.90
2022-07-28T22:24:06.312Z,2.30
2022-07-28T22:26:35.362Z,1.75
2022-07-28T22:29:02.969Z,2.70
2022-07-28T22:31:30.730Z,2.13
2022-07-28T22:33:58.304Z,2.30
2022-07-28T22:36:25.931Z,1.98
2022-07-28T22:38:53.491Z,1.92
2022-07-28T22:41:21.068Z,2.35
2022-07-28T22:43:50.309Z,1.92
2022-07-28T22:46:17.958Z,2.17
2022-07-28T22:48:45.601Z,2.67
2022-07-28T22:51:13.523Z,2.08
2022-07-28T22:53:41.202Z,2.17
2022-07-28T22:58:55.426Z,2.50
2022-07-28T23:01:24.331Z,2.10
2022-07-28T23:03:53.155Z,2.65
2022-07-28T23:06:20.864Z,2.40
2022-07-28T23:08:48.470Z,2.45
2022-07-28T23:11:15.997Z,2.42
2022-07-28T23:13:43.605Z,2.38
2022-07-28T23:16:13.502Z,2.22
2022-07-28T23:18:41.243Z,2.00
2022-07-28T23:21:09.044Z,2.25
2022-07-28T23:23:36.950Z,2.00
2022-07-28T23:26:04.513Z,2.30
2022-07-28T23:28:32.130Z,2.28
2022-07-28T23:30:59.721Z,2.30
2022-07-28T23:33:56.275Z,2.50
2022-07-28T23:36:26.760Z,2.00
2022-07-28T23:38:56.600Z,2.20
2022-07-28T23:41:24.356Z,2.38
2022-07-28T23:43:51.968Z,2.03
2022-07-28T23:46:19.644Z,2.33
2022-07-28T23:48:48.846Z,2.10
2022-07-28T23:51:16.485Z,2.38
2022-07-28T23:53:44.209Z,1.80
2022-07-28T23:56:11.793Z,2.10
2022-07-28T23:58:39.387Z,2.13
